Lake Tahoe, CA

1:37 PM PDT on August 30, 2016 (GMT -0700)
Lake Tahoe | | Change Station

Elev 6263 ft 38.90 °N, 120.00 °W | Updated 44 minutes ago

Clear
Clear
79 °F
Feels Like 79 °F
N
14
Wind Variable Wind from SSW
Gusts 23 mph

Today
High -- | Low -- °F
--% Chance of Precip.
Yesterday
High -- | Low -- °F
Precip. -- in
Pressure 30.04 in
Visibility 10.0 miles
Clouds Clear
Dew Point 25 °F
Humidity 14%
Rainfall 0.00 in
Snow Depth Not available.
6:27 AM 7:32 PM
Waning Crescent, 2% visible
METAR KTVL 301953Z AUTO 20012G20KT 180V240 10SM CLR 26/M04 A3021 RMK AO2 SLP170 T02611039
Pressure 30.04 in
Visibility 10.0 miles
Clouds Clear
Dew Point 25 °F
Humidity 14%
Rainfall 0.00 in
Snow Depth Not available.
6:27 AM 7:32 PM
Waning Crescent, 2% visible
METAR KTVL 301953Z AUTO 20012G20KT 180V240 10SM CLR 26/M04 A3021 RMK AO2 SLP170 T02611039

10-Day Weather Forecast

Almanac

Astronomy

Aug. 30, 2016 Rise Set
Actual Time
Civil Twilight
Nautical Twilight
Astronomical Twilight
Moon
Length of Visible Light
Length of Day
Tomorrow will be .
, % of the Moon is Illuminated

Today's Extremes

State Highs State Lows

Community

WunderPhotos

Upload Photos

1,935,889 photos uploaded!

WunderBlog® & News

Nearby

Air Quality

  Air Quality AQ Index Pollutant
Not available.

Snow Depth

Station Depth Elevation

Earthquake Activity

City Distance Mag. Time & Date
Minimum magnitude displayed is 2.5.

Coastal Water Temperatures

Place Temperature

Stations

Nearby Weather Stations

Station Location Temp. Windchill Dew Point Humidity Wind Precip. Elev Updated Type
                   

Watches & Warnings

There are currently no watches in effect.